Oshkosh, NE (69154)

7:01 PM MDT on July 07, 2015 (GMT -0600)
West end of Town (K0RRL) | | Change Station
CLOSE
Current Station
Personal Weather Station
Location: Oshkosh, NE
Elevation: 3394 ft
Nearby Weather Stations

Elev 3394 ft 41.41 °N, 102.36 °W | Updated 32 seconds ago

Mostly Cloudy
Mostly Cloudy
70.3 °F
Feels Like 77 °F
N
5.0
Wind Variable Wind from SSE
Gusts 8.1 mph

Today
High -- | Low -- °F
--% Chance of Precip.
Yesterday
High -- | Low -- °F
Precip. -- in
5:22 AM 8:25 PM
Waning Gibbous, 59% visible
Pressure 30.11 in
Visibility 10.0 miles
Clouds Overcast 8000 ft
Heat Index 77 °F
Dew Point 47 °F
Humidity 43%
Rainfall 0.41 in
Snow Depth Not available.
UV 0 out of 12
Pollen 4.80 out of 12
Air Quality Not available.
Flu Activity Not available.
METAR KOGA 080035Z AUTO 14007KT 10SM OVC080 21/11 A3011 RMK AO2 T02100112

More Conditions Fewer Conditions

Pressure 30.11 in
Visibility 10.0 miles
Clouds Overcast 8000 ft
Heat Index 77 °F
Dew Point 47 °F
Humidity 43%
Rainfall 0.41 in
Snow Depth Not available.
UV 0 out of 12
Pollen 4.80 out of 12
Air Quality Not available.
Flu Activity Not available.
METAR KOGA 080035Z AUTO 14007KT 10SM OVC080 21/11 A3011 RMK AO2 T02100112

More Conditions Fewer Conditions

10-Day Weather Forecast

×

Almanac

Astronomy

Jul. 07, 2015 Rise Set
Actual Time
Civil Twilight
Nautical Twilight
Astronomical Twilight
Moon
Length of Visible Light
Length of Day
Tomorrow will be .
, % of the Moon is Illuminated

Today's Extremes

State Highs State Lows

Community

WunderPhotos

Upload Photos

1,835,985 photos uploaded!

WunderBlogs® & News

Nearby

Air Quality

  Air Quality AQ Index Pollutant
Not available.

Snow Depth

Station Depth Elevation

Earthquake Activity

City Distance Mag. Time & Date
Minimum magnitude displayed is 2.5.

Coastal Water Temperatures

Place Temperature

Stations

Nearby Weather Stations

Station Location Temp. Windchill Dew Point Humidity Wind Precip. Elev Updated Type